Terminal Aerodrome Forecast
Issued by NWS Austin/San Antonio, TX

Home | Current Version | Previous Version | Text Only | Print | Product List | Glossary On
Versions: 1 2 3 4 5 6 7 8 9 10 11 12 13 14 15 16 17 18 19 20 21
436
FTUS44 KEWX 260545
TAFSAT
TAF
KSAT 260545Z 2606/2712 VRB04KT P6SM SCT100 BKN150
     FM261400 08005KT P6SM BKN025
     FM261700 10005KT P6SM BKN040
     FM261900 14008KT P6SM VCTS BKN040CB
     FM270100 12005KT P6SM BKN250=

USA.gov is the U.S. government's official web portal to all federal, state and local government web resources and services.